sensor_id;sensor_type;location;lat;lon;timestamp;temperature;humidity
37240;DHT22;23130;48.760;9.178;2023-04-25T00:02:25;7.80;99.90
37240;DHT22;23130;48.760;9.178;2023-04-25T00:04:50;7.80;99.90
37240;DHT22;23130;48.760;9.178;2023-04-25T00:07:17;7.80;99.90
37240;DHT22;23130;48.760;9.178;2023-04-25T00:09:43;7.80;99.90
37240;DHT22;23130;48.760;9.178;2023-04-25T00:12:08;7.80;99.90
37240;DHT22;23130;48.760;9.178;2023-04-25T00:14:34;7.70;99.90
37240;DHT22;23130;48.760;9.178;2023-04-25T00:17:01;7.70;99.90
37240;DHT22;23130;48.760;9.178;2023-04-25T00:19:28;7.70;99.90
37240;DHT22;23130;48.760;9.178;2023-04-25T00:21:54;7.70;99.90
37240;DHT22;23130;48.760;9.178;2023-04-25T00:24:20;7.60;99.90
37240;DHT22;23130;48.760;9.178;2023-04-25T00:26:46;7.60;99.90
37240;DHT22;23130;48.760;9.178;2023-04-25T00:29:12;7.60;99.90
37240;DHT22;23130;48.760;9.178;2023-04-25T00:31:37;7.60;99.90
37240;DHT22;23130;48.760;9.178;2023-04-25T00:34:03;7.50;99.90
37240;DHT22;23130;48.760;9.178;2023-04-25T00:36:28;7.60;99.90
37240;DHT22;23130;48.760;9.178;2023-04-25T00:38:55;7.60;99.90
37240;DHT22;23130;48.760;9.178;2023-04-25T00:41:21;7.60;99.90
37240;DHT22;23130;48.760;9.178;2023-04-25T00:43:48;7.60;99.90
37240;DHT22;23130;48.760;9.178;2023-04-25T00:46:14;7.60;99.90
37240;DHT22;23130;48.760;9.178;2023-04-25T00:48:39;7.60;99.90
37240;DHT22;23130;48.760;9.178;2023-04-25T00:51:05;7.60;99.90
37240;DHT22;23130;48.760;9.178;2023-04-25T00:53:31;7.70;99.90
37240;DHT22;23130;48.760;9.178;2023-04-25T00:55:57;7.70;99.90
37240;DHT22;23130;48.760;9.178;2023-04-25T00:58:24;7.70;99.90
37240;DHT22;23130;48.760;9.178;2023-04-25T01:00:51;7.80;99.90
37240;DHT22;23130;48.760;9.178;2023-04-25T01:03:20;7.80;99.90
37240;DHT22;23130;48.760;9.178;2023-04-25T01:05:46;7.80;99.90
37240;DHT22;23130;48.760;9.178;2023-04-25T01:08:12;7.80;99.90
37240;DHT22;23130;48.760;9.178;2023-04-25T01:10:38;7.80;99.90
37240;DHT22;23130;48.760;9.178;2023-04-25T01:13:03;7.80;99.90
37240;DHT22;23130;48.760;9.178;2023-04-25T01:15:29;7.80;99.90
37240;DHT22;23130;48.760;9.178;2023-04-25T01:17:55;7.80;99.90
37240;DHT22;23130;48.760;9.178;2023-04-25T01:20:22;7.80;99.90
37240;DHT22;23130;48.760;9.178;2023-04-25T01:22:48;7.80;99.90
37240;DHT22;23130;48.760;9.178;2023-04-25T01:25:14;7.90;99.90
37240;DHT22;23130;48.760;9.178;2023-04-25T01:27:40;7.90;99.90
37240;DHT22;23130;48.760;9.178;2023-04-25T01:30:06;7.80;99.90
37240;DHT22;23130;48.760;9.178;2023-04-25T01:32:33;7.80;99.90
37240;DHT22;23130;48.760;9.178;2023-04-25T01:35:08;7.70;99.90
37240;DHT22;23130;48.760;9.178;2023-04-25T01:37:36;7.70;99.90
37240;DHT22;23130;48.760;9.178;2023-04-25T01:40:02;7.60;99.90
37240;DHT22;23130;48.760;9.178;2023-04-25T01:42:31;7.60;99.90
37240;DHT22;23130;48.760;9.178;2023-04-25T01:45:00;7.60;99.90
37240;DHT22;23130;48.760;9.178;2023-04-25T01:47:26;7.50;99.90
37240;DHT22;23130;48.760;9.178;2023-04-25T01:49:51;7.50;99.90
37240;DHT22;23130;48.760;9.178;2023-04-25T01:52:17;7.50;99.90
37240;DHT22;23130;48.760;9.178;2023-04-25T01:54:42;7.50;99.90
37240;DHT22;23130;48.760;9.178;2023-04-25T01:57:12;7.40;99.90
37240;DHT22;23130;48.760;9.178;2023-04-25T01:59:38;7.40;99.90
37240;DHT22;23130;48.760;9.178;2023-04-25T02:02:05;7.30;99.90
37240;DHT22;23130;48.760;9.178;2023-04-25T02:04:33;7.40;99.90
37240;DHT22;23130;48.760;9.178;2023-04-25T02:06:58;7.40;99.90
37240;DHT22;23130;48.760;9.178;2023-04-25T02:09:24;7.40;99.90
37240;DHT22;23130;48.760;9.178;2023-04-25T02:11:50;7.40;99.90
37240;DHT22;23130;48.760;9.178;2023-04-25T02:14:15;7.40;99.90
37240;DHT22;23130;48.760;9.178;2023-04-25T02:16:41;7.40;99.90
37240;DHT22;23130;48.760;9.178;2023-04-25T02:19:09;7.30;99.90
37240;DHT22;23130;48.760;9.178;2023-04-25T02:21:35;7.30;99.90
37240;DHT22;23130;48.760;9.178;2023-04-25T02:24:01;7.20;99.90
37240;DHT22;23130;48.760;9.178;2023-04-25T02:26:27;7.20;99.90
37240;DHT22;23130;48.760;9.178;2023-04-25T02:28:52;7.20;99.90
37240;DHT22;23130;48.760;9.178;2023-04-25T02:31:18;7.10;99.90
37240;DHT22;23130;48.760;9.178;2023-04-25T02:33:44;7.10;99.90
37240;DHT22;23130;48.760;9.178;2023-04-25T02:36:10;7.00;99.90
37240;DHT22;23130;48.760;9.178;2023-04-25T02:38:35;7.00;99.90
37240;DHT22;23130;48.760;9.178;2023-04-25T02:41:01;6.90;99.90
37240;DHT22;23130;48.760;9.178;2023-04-25T02:43:26;6.80;99.90
37240;DHT22;23130;48.760;9.178;2023-04-25T02:45:52;6.80;99.90
37240;DHT22;23130;48.760;9.178;2023-04-25T02:48:17;6.80;99.90
37240;DHT22;23130;48.760;9.178;2023-04-25T02:50:43;6.70;99.90
37240;DHT22;23130;48.760;9.178;2023-04-25T02:53:08;6.70;99.90
37240;DHT22;23130;48.760;9.178;2023-04-25T02:55:34;6.80;99.90
37240;DHT22;23130;48.760;9.178;2023-04-25T02:58:00;6.80;99.90
37240;DHT22;23130;48.760;9.178;2023-04-25T03:00:25;6.80;99.90
37240;DHT22;23130;48.760;9.178;2023-04-25T03:02:51;6.70;99.90
37240;DHT22;23130;48.760;9.178;2023-04-25T03:05:17;6.70;99.90
37240;DHT22;23130;48.760;9.178;2023-04-25T03:07:42;6.60;99.90
37240;DHT22;23130;48.760;9.178;2023-04-25T03:10:10;6.60;99.90
37240;DHT22;23130;48.760;9.178;2023-04-25T03:12:36;6.60;99.90
37240;DHT22;23130;48.760;9.178;2023-04-25T03:15:02;6.60;99.90
37240;DHT22;23130;48.760;9.178;2023-04-25T03:17:28;6.60;99.90
37240;DHT22;23130;48.760;9.178;2023-04-25T03:19:54;6.70;99.90
37240;DHT22;23130;48.760;9.178;2023-04-25T03:22:19;6.70;99.90
37240;DHT22;23130;48.760;9.178;2023-04-25T03:24:45;6.80;99.90
37240;DHT22;23130;48.760;9.178;2023-04-25T03:27:11;6.80;99.90
37240;DHT22;23130;48.760;9.178;2023-04-25T03:29:36;6.80;99.90
37240;DHT22;23130;48.760;9.178;2023-04-25T03:32:02;6.80;99.90
37240;DHT22;23130;48.760;9.178;2023-04-25T03:34:27;6.70;99.90
37240;DHT22;23130;48.760;9.178;2023-04-25T03:36:56;6.70;99.90
37240;DHT22;23130;48.760;9.178;2023-04-25T03:39:21;6.70;99.90
37240;DHT22;23130;48.760;9.178;2023-04-25T03:41:47;6.60;99.90
37240;DHT22;23130;48.760;9.178;2023-04-25T03:44:13;6.50;99.90
37240;DHT22;23130;48.760;9.178;2023-04-25T03:46:38;6.50;99.90
37240;DHT22;23130;48.760;9.178;2023-04-25T03:49:04;6.40;99.90
37240;DHT22;23130;48.760;9.178;2023-04-25T03:51:29;6.40;99.90
37240;DHT22;23130;48.760;9.178;2023-04-25T03:53:56;6.50;99.90
37240;DHT22;23130;48.760;9.178;2023-04-25T03:56:21;6.50;99.90
37240;DHT22;23130;48.760;9.178;2023-04-25T03:58:47;6.60;99.90
37240;DHT22;23130;48.760;9.178;2023-04-25T04:01:12;6.60;99.90
37240;DHT22;23130;48.760;9.178;2023-04-25T04:03:38;6.60;99.90
37240;DHT22;23130;48.760;9.178;2023-04-25T04:06:04;6.60;99.90
37240;DHT22;23130;48.760;9.178;2023-04-25T04:08:31;6.60;99.90
37240;DHT22;23130;48.760;9.178;2023-04-25T04:11:00;6.50;99.90
37240;DHT22;23130;48.760;9.178;2023-04-25T04:13:26;6.50;99.90
37240;DHT22;23130;48.760;9.178;2023-04-25T04:15:52;6.50;99.90
37240;DHT22;23130;48.760;9.178;2023-04-25T04:18:18;6.50;99.90
37240;DHT22;23130;48.760;9.178;2023-04-25T04:20:44;6.40;99.90
37240;DHT22;23130;48.760;9.178;2023-04-25T04:23:10;6.40;99.90
37240;DHT22;23130;48.760;9.178;2023-04-25T04:25:36;6.40;99.90
37240;DHT22;23130;48.760;9.178;2023-04-25T04:28:02;6.40;99.90
37240;DHT22;23130;48.760;9.178;2023-04-25T04:30:27;6.50;99.90
37240;DHT22;23130;48.760;9.178;2023-04-25T04:32:56;6.60;99.90
37240;DHT22;23130;48.760;9.178;2023-04-25T04:35:23;6.60;99.90
37240;DHT22;23130;48.760;9.178;2023-04-25T04:37:49;6.60;99.90
37240;DHT22;23130;48.760;9.178;2023-04-25T04:40:15;6.70;99.90
37240;DHT22;23130;48.760;9.178;2023-04-25T04:42:41;6.80;99.90
37240;DHT22;23130;48.760;9.178;2023-04-25T04:45:08;6.90;99.90
37240;DHT22;23130;48.760;9.178;2023-04-25T04:47:34;6.90;99.90
37240;DHT22;23130;48.760;9.178;2023-04-25T04:50:02;7.10;99.90
37240;DHT22;23130;48.760;9.178;2023-04-25T04:52:28;7.10;99.90
37240;DHT22;23130;48.760;9.178;2023-04-25T04:54:53;7.20;99.90
37240;DHT22;23130;48.760;9.178;2023-04-25T04:57:19;7.20;99.90
37240;DHT22;23130;48.760;9.178;2023-04-25T04:59:45;7.30;99.90
37240;DHT22;23130;48.760;9.178;2023-04-25T05:02:11;7.30;99.90
37240;DHT22;23130;48.760;9.178;2023-04-25T05:04:36;7.30;99.90
37240;DHT22;23130;48.760;9.178;2023-04-25T05:07:02;7.30;99.90
37240;DHT22;23130;48.760;9.178;2023-04-25T05:09:27;7.30;99.90
37240;DHT22;23130;48.760;9.178;2023-04-25T05:11:53;7.40;99.90
37240;DHT22;23130;48.760;9.178;2023-04-25T05:14:19;7.40;99.90
37240;DHT22;23130;48.760;9.178;2023-04-25T05:16:44;7.50;99.90
37240;DHT22;23130;48.760;9.178;2023-04-25T05:19:10;7.60;99.90
37240;DHT22;23130;48.760;9.178;2023-04-25T05:21:35;7.60;99.90
37240;DHT22;23130;48.760;9.178;2023-04-25T05:24:01;7.80;99.90
37240;DHT22;23130;48.760;9.178;2023-04-25T05:26:27;8.00;99.90
37240;DHT22;23130;48.760;9.178;2023-04-25T05:28:56;8.20;99.90
37240;DHT22;23130;48.760;9.178;2023-04-25T05:31:22;8.30;99.90
37240;DHT22;23130;48.760;9.178;2023-04-25T05:33:48;8.30;99.90
37240;DHT22;23130;48.760;9.178;2023-04-25T05:36:13;8.40;99.90
37240;DHT22;23130;48.760;9.178;2023-04-25T05:38:39;8.50;99.90
37240;DHT22;23130;48.760;9.178;2023-04-25T05:41:04;8.50;99.90
37240;DHT22;23130;48.760;9.178;2023-04-25T05:43:30;8.60;99.90
37240;DHT22;23130;48.760;9.178;2023-04-25T05:45:55;8.90;99.90
37240;DHT22;23130;48.760;9.178;2023-04-25T05:48:21;9.10;99.90
37240;DHT22;23130;48.760;9.178;2023-04-25T05:50:46;9.30;99.90
37240;DHT22;23130;48.760;9.178;2023-04-25T05:53:12;9.50;99.90
37240;DHT22;23130;48.760;9.178;2023-04-25T05:55:38;9.50;99.90
37240;DHT22;23130;48.760;9.178;2023-04-25T05:58:05;9.40;99.90
37240;DHT22;23130;48.760;9.178;2023-04-25T06:00:30;9.40;99.90
37240;DHT22;23130;48.760;9.178;2023-04-25T06:02:56;9.20;99.90
37240;DHT22;23130;48.760;9.178;2023-04-25T06:05:21;9.00;99.90
37240;DHT22;23130;48.760;9.178;2023-04-25T06:07:47;8.80;99.90
37240;DHT22;23130;48.760;9.178;2023-04-25T06:10:13;8.60;99.90
37240;DHT22;23130;48.760;9.178;2023-04-25T06:12:38;8.60;99.90
37240;DHT22;23130;48.760;9.178;2023-04-25T06:15:05;8.50;99.90
37240;DHT22;23130;48.760;9.178;2023-04-25T06:17:31;8.40;99.90
37240;DHT22;23130;48.760;9.178;2023-04-25T06:19:56;8.50;99.90
37240;DHT22;23130;48.760;9.178;2023-04-25T06:22:22;8.50;99.90
37240;DHT22;23130;48.760;9.178;2023-04-25T06:24:47;8.50;99.90
37240;DHT22;23130;48.760;9.178;2023-04-25T06:27:13;8.50;99.90
37240;DHT22;23130;48.760;9.178;2023-04-25T06:29:38;8.50;99.90
37240;DHT22;23130;48.760;9.178;2023-04-25T06:32:04;8.60;99.90
37240;DHT22;23130;48.760;9.178;2023-04-25T06:34:30;8.70;99.90
37240;DHT22;23130;48.760;9.178;2023-04-25T06:36:56;8.80;99.90
37240;DHT22;23130;48.760;9.178;2023-04-25T06:39:21;8.90;99.90
37240;DHT22;23130;48.760;9.178;2023-04-25T06:41:48;9.00;99.90
37240;DHT22;23130;48.760;9.178;2023-04-25T06:44:14;9.00;99.90
37240;DHT22;23130;48.760;9.178;2023-04-25T06:46:40;9.00;99.90
37240;DHT22;23130;48.760;9.178;2023-04-25T06:49:06;9.00;99.90
37240;DHT22;23130;48.760;9.178;2023-04-25T06:51:32;9.00;99.90
37240;DHT22;23130;48.760;9.178;2023-04-25T06:53:57;8.90;99.90
37240;DHT22;23130;48.760;9.178;2023-04-25T06:56:23;8.80;99.90
37240;DHT22;23130;48.760;9.178;2023-04-25T06:58:49;8.80;99.90
37240;DHT22;23130;48.760;9.178;2023-04-25T07:01:15;8.80;99.90
37240;DHT22;23130;48.760;9.178;2023-04-25T07:03:40;8.80;99.90
37240;DHT22;23130;48.760;9.178;2023-04-25T07:06:06;8.80;99.90
37240;DHT22;23130;48.760;9.178;2023-04-25T07:08:32;8.90;99.90
37240;DHT22;23130;48.760;9.178;2023-04-25T07:10:57;8.80;99.90
37240;DHT22;23130;48.760;9.178;2023-04-25T07:13:23;8.80;99.90
37240;DHT22;23130;48.760;9.178;2023-04-25T07:15:48;8.70;99.90
37240;DHT22;23130;48.760;9.178;2023-04-25T07:18:14;8.50;99.90
37240;DHT22;23130;48.760;9.178;2023-04-25T07:20:40;8.50;99.90
37240;DHT22;23130;48.760;9.178;2023-04-25T07:23:06;8.30;99.90
37240;DHT22;23130;48.760;9.178;2023-04-25T07:25:32;8.20;99.90
37240;DHT22;23130;48.760;9.178;2023-04-25T07:27:57;8.10;99.90
37240;DHT22;23130;48.760;9.178;2023-04-25T07:30:23;8.10;99.90
37240;DHT22;23130;48.760;9.178;2023-04-25T07:32:49;8.00;99.90
37240;DHT22;23130;48.760;9.178;2023-04-25T07:35:15;7.90;99.90
37240;DHT22;23130;48.760;9.178;2023-04-25T07:37:41;7.90;99.90
37240;DHT22;23130;48.760;9.178;2023-04-25T07:40:07;7.90;99.90
37240;DHT22;23130;48.760;9.178;2023-04-25T07:42:34;8.00;99.90
37240;DHT22;23130;48.760;9.178;2023-04-25T07:45:01;8.00;99.90
37240;DHT22;23130;48.760;9.178;2023-04-25T07:47:26;7.90;99.90
37240;DHT22;23130;48.760;9.178;2023-04-25T07:49:52;7.90;99.90
37240;DHT22;23130;48.760;9.178;2023-04-25T07:52:17;7.80;99.90
37240;DHT22;23130;48.760;9.178;2023-04-25T07:54:43;7.80;99.90
37240;DHT22;23130;48.760;9.178;2023-04-25T07:57:08;7.70;99.90
37240;DHT22;23130;48.760;9.178;2023-04-25T07:59:34;7.70;99.90
37240;DHT22;23130;48.760;9.178;2023-04-25T08:02:00;7.60;99.90
37240;DHT22;23130;48.760;9.178;2023-04-25T08:04:26;7.60;99.90
37240;DHT22;23130;48.760;9.178;2023-04-25T08:06:52;7.50;99.90
37240;DHT22;23130;48.760;9.178;2023-04-25T08:09:19;7.50;99.90
37240;DHT22;23130;48.760;9.178;2023-04-25T08:11:45;7.40;99.90
37240;DHT22;23130;48.760;9.178;2023-04-25T08:14:11;7.50;99.90
37240;DHT22;23130;48.760;9.178;2023-04-25T08:16:37;7.50;99.90
37240;DHT22;23130;48.760;9.178;2023-04-25T08:19:03;7.50;99.90
37240;DHT22;23130;48.760;9.178;2023-04-25T08:21:28;7.60;99.90
37240;DHT22;23130;48.760;9.178;2023-04-25T08:23:54;7.60;99.90
37240;DHT22;23130;48.760;9.178;2023-04-25T08:26:20;7.60;99.90
37240;DHT22;23130;48.760;9.178;2023-04-25T08:28:46;7.60;99.90
37240;DHT22;23130;48.760;9.178;2023-04-25T08:31:12;7.60;99.90
37240;DHT22;23130;48.760;9.178;2023-04-25T08:33:37;7.70;99.90
37240;DHT22;23130;48.760;9.178;2023-04-25T08:36:03;7.70;99.90
37240;DHT22;23130;48.760;9.178;2023-04-25T08:38:28;7.90;99.90
37240;DHT22;23130;48.760;9.178;2023-04-25T08:40:54;7.90;99.90
37240;DHT22;23130;48.760;9.178;2023-04-25T08:43:23;8.00;99.90
37240;DHT22;23130;48.760;9.178;2023-04-25T08:45:52;8.10;99.90
37240;DHT22;23130;48.760;9.178;2023-04-25T08:48:19;8.20;99.90
37240;DHT22;23130;48.760;9.178;2023-04-25T08:50:50;8.20;99.90
37240;DHT22;23130;48.760;9.178;2023-04-25T08:53:22;8.30;99.90
37240;DHT22;23130;48.760;9.178;2023-04-25T08:55:50;8.30;99.90
37240;DHT22;23130;48.760;9.178;2023-04-25T08:58:18;8.50;99.90
37240;DHT22;23130;48.760;9.178;2023-04-25T09:00:46;8.60;99.90
37240;DHT22;23130;48.760;9.178;2023-04-25T09:03:12;8.50;99.90
37240;DHT22;23130;48.760;9.178;2023-04-25T09:05:38;8.40;99.90
37240;DHT22;23130;48.760;9.178;2023-04-25T09:08:05;8.40;99.90
37240;DHT22;23130;48.760;9.178;2023-04-25T09:10:31;8.30;99.90
37240;DHT22;23130;48.760;9.178;2023-04-25T09:13:10;8.20;99.90
37240;DHT22;23130;48.760;9.178;2023-04-25T09:15:55;8.10;99.90
37240;DHT22;23130;48.760;9.178;2023-04-25T09:18:26;7.90;99.90
37240;DHT22;23130;48.760;9.178;2023-04-25T09:20:56;7.90;99.90
37240;DHT22;23130;48.760;9.178;2023-04-25T09:23:22;7.90;99.90
37240;DHT22;23130;48.760;9.178;2023-04-25T09:25:49;7.90;99.90
37240;DHT22;23130;48.760;9.178;2023-04-25T09:28:15;7.90;99.90
37240;DHT22;23130;48.760;9.178;2023-04-25T09:30:41;7.80;99.90
37240;DHT22;23130;48.760;9.178;2023-04-25T09:33:11;7.90;99.90
37240;DHT22;23130;48.760;9.178;2023-04-25T09:35:43;7.80;99.90
37240;DHT22;23130;48.760;9.178;2023-04-25T09:38:11;7.70;99.90
37240;DHT22;23130;48.760;9.178;2023-04-25T09:40:44;7.70;99.90
37240;DHT22;23130;48.760;9.178;2023-04-25T09:43:20;7.80;99.90
37240;DHT22;23130;48.760;9.178;2023-04-25T09:45:49;7.80;99.90
37240;DHT22;23130;48.760;9.178;2023-04-25T09:48:21;7.80;99.90
37240;DHT22;23130;48.760;9.178;2023-04-25T09:51:06;7.80;99.90
37240;DHT22;23130;48.760;9.178;2023-04-25T09:53:33;7.70;99.90
37240;DHT22;23130;48.760;9.178;2023-04-25T09:56:00;7.70;99.90
37240;DHT22;23130;48.760;9.178;2023-04-25T09:58:29;7.60;99.90
37240;DHT22;23130;48.760;9.178;2023-04-25T10:00:59;7.60;99.90
37240;DHT22;23130;48.760;9.178;2023-04-25T10:03:25;7.60;99.90
37240;DHT22;23130;48.760;9.178;2023-04-25T10:05:52;7.60;99.90
37240;DHT22;23130;48.760;9.178;2023-04-25T10:08:18;7.60;99.90
37240;DHT22;23130;48.760;9.178;2023-04-25T10:10:45;7.60;99.90
37240;DHT22;23130;48.760;9.178;2023-04-25T10:13:12;7.70;99.90
37240;DHT22;23130;48.760;9.178;2023-04-25T10:15:40;7.70;99.90
37240;DHT22;23130;48.760;9.178;2023-04-25T10:18:07;7.80;99.90
37240;DHT22;23130;48.760;9.178;2023-04-25T10:20:33;7.80;99.90
37240;DHT22;23130;48.760;9.178;2023-04-25T10:23:12;7.80;99.90
37240;DHT22;23130;48.760;9.178;2023-04-25T10:25:39;7.80;99.90
37240;DHT22;23130;48.760;9.178;2023-04-25T10:28:05;7.70;99.90
37240;DHT22;23130;48.760;9.178;2023-04-25T10:30:31;7.70;99.90
37240;DHT22;23130;48.760;9.178;2023-04-25T10:32:59;7.60;99.90
37240;DHT22;23130;48.760;9.178;2023-04-25T10:35:27;7.50;99.90
37240;DHT22;23130;48.760;9.178;2023-04-25T10:38:00;7.50;99.90
37240;DHT22;23130;48.760;9.178;2023-04-25T10:40:27;7.50;99.90
37240;DHT22;23130;48.760;9.178;2023-04-25T10:42:54;7.50;99.90
37240;DHT22;23130;48.760;9.178;2023-04-25T10:45:20;7.60;99.90
37240;DHT22;23130;48.760;9.178;2023-04-25T10:47:46;7.50;99.90
37240;DHT22;23130;48.760;9.178;2023-04-25T10:50:14;7.50;99.90
37240;DHT22;23130;48.760;9.178;2023-04-25T10:52:41;7.60;99.90
37240;DHT22;23130;48.760;9.178;2023-04-25T10:55:07;7.50;99.90
37240;DHT22;23130;48.760;9.178;2023-04-25T10:57:40;7.40;99.90
37240;DHT22;23130;48.760;9.178;2023-04-25T11:00:14;7.30;99.90
37240;DHT22;23130;48.760;9.178;2023-04-25T11:02:42;7.20;99.90
37240;DHT22;23130;48.760;9.178;2023-04-25T11:05:33;7.00;99.90
37240;DHT22;23130;48.760;9.178;2023-04-25T11:07:59;6.90;99.90
37240;DHT22;23130;48.760;9.178;2023-04-25T11:10:29;6.80;99.90
37240;DHT22;23130;48.760;9.178;2023-04-25T11:12:56;6.80;99.90
37240;DHT22;23130;48.760;9.178;2023-04-25T11:15:21;6.90;99.90
37240;DHT22;23130;48.760;9.178;2023-04-25T11:17:47;6.80;99.90
37240;DHT22;23130;48.760;9.178;2023-04-25T11:20:13;6.90;99.90
37240;DHT22;23130;48.760;9.178;2023-04-25T11:22:39;7.00;99.90
37240;DHT22;23130;48.760;9.178;2023-04-25T11:25:09;7.10;99.90
37240;DHT22;23130;48.760;9.178;2023-04-25T11:27:38;7.00;99.90
37240;DHT22;23130;48.760;9.178;2023-04-25T11:30:14;7.00;99.90
37240;DHT22;23130;48.760;9.178;2023-04-25T11:32:41;7.00;99.90
37240;DHT22;23130;48.760;9.178;2023-04-25T11:35:08;7.10;99.90
37240;DHT22;23130;48.760;9.178;2023-04-25T11:37:34;7.30;99.90
37240;DHT22;23130;48.760;9.178;2023-04-25T11:40:00;7.50;99.90
37240;DHT22;23130;48.760;9.178;2023-04-25T11:42:26;7.70;99.90
37240;DHT22;23130;48.760;9.178;2023-04-25T11:44:52;7.90;99.90
37240;DHT22;23130;48.760;9.178;2023-04-25T11:47:17;8.10;99.90
37240;DHT22;23130;48.760;9.178;2023-04-25T11:49:43;8.10;99.90
37240;DHT22;23130;48.760;9.178;2023-04-25T11:52:08;8.40;99.90
37240;DHT22;23130;48.760;9.178;2023-04-25T11:54:37;8.50;99.90
37240;DHT22;23130;48.760;9.178;2023-04-25T11:57:04;8.50;99.90
37240;DHT22;23130;48.760;9.178;2023-04-25T11:59:29;8.30;99.90
37240;DHT22;23130;48.760;9.178;2023-04-25T12:01:56;8.10;99.90
37240;DHT22;23130;48.760;9.178;2023-04-25T12:04:24;8.10;99.90
37240;DHT22;23130;48.760;9.178;2023-04-25T12:06:52;8.10;99.90
37240;DHT22;23130;48.760;9.178;2023-04-25T12:09:36;8.10;99.90
37240;DHT22;23130;48.760;9.178;2023-04-25T12:12:02;8.10;99.90
37240;DHT22;23130;48.760;9.178;2023-04-25T12:14:35;8.30;99.90
37240;DHT22;23130;48.760;9.178;2023-04-25T12:17:02;8.50;99.90
37240;DHT22;23130;48.760;9.178;2023-04-25T12:19:33;8.60;99.90
37240;DHT22;23130;48.760;9.178;2023-04-25T12:22:03;8.80;99.90
37240;DHT22;23130;48.760;9.178;2023-04-25T12:24:45;8.80;99.90
37240;DHT22;23130;48.760;9.178;2023-04-25T12:27:10;8.90;99.90
37240;DHT22;23130;48.760;9.178;2023-04-25T12:29:36;8.80;99.90
37240;DHT22;23130;48.760;9.178;2023-04-25T12:32:01;8.70;99.90
37240;DHT22;23130;48.760;9.178;2023-04-25T12:34:27;8.60;99.90
37240;DHT22;23130;48.760;9.178;2023-04-25T12:36:53;8.70;99.90
37240;DHT22;23130;48.760;9.178;2023-04-25T12:39:21;8.80;99.90
37240;DHT22;23130;48.760;9.178;2023-04-25T12:41:47;9.00;99.90
37240;DHT22;23130;48.760;9.178;2023-04-25T12:44:13;9.10;99.90
37240;DHT22;23130;48.760;9.178;2023-04-25T12:46:39;9.30;99.90
37240;DHT22;23130;48.760;9.178;2023-04-25T12:49:06;9.70;99.90
37240;DHT22;23130;48.760;9.178;2023-04-25T12:51:33;10.10;99.90
37240;DHT22;23130;48.760;9.178;2023-04-25T12:53:59;10.50;99.90
37240;DHT22;23130;48.760;9.178;2023-04-25T12:56:26;10.60;99.90
37240;DHT22;23130;48.760;9.178;2023-04-25T12:58:52;10.90;99.90
37240;DHT22;23130;48.760;9.178;2023-04-25T13:01:19;11.20;99.90
37240;DHT22;23130;48.760;9.178;2023-04-25T13:03:45;11.30;99.90
37240;DHT22;23130;48.760;9.178;2023-04-25T13:06:11;11.70;99.90
37240;DHT22;23130;48.760;9.178;2023-04-25T13:08:38;11.90;99.90
37240;DHT22;23130;48.760;9.178;2023-04-25T13:11:05;11.80;99.90
37240;DHT22;23130;48.760;9.178;2023-04-25T13:13:30;12.10;99.90
37240;DHT22;23130;48.760;9.178;2023-04-25T13:15:57;12.10;99.90
37240;DHT22;23130;48.760;9.178;2023-04-25T13:18:23;12.00;99.90
37240;DHT22;23130;48.760;9.178;2023-04-25T13:20:52;12.00;99.90
37240;DHT22;23130;48.760;9.178;2023-04-25T13:23:18;11.70;99.90
37240;DHT22;23130;48.760;9.178;2023-04-25T13:25:43;11.70;99.90
37240;DHT22;23130;48.760;9.178;2023-04-25T13:28:09;11.70;99.90
37240;DHT22;23130;48.760;9.178;2023-04-25T13:30:35;11.50;99.90
37240;DHT22;23130;48.760;9.178;2023-04-25T13:33:00;11.50;99.90
37240;DHT22;23130;48.760;9.178;2023-04-25T13:35:29;11.30;99.90
37240;DHT22;23130;48.760;9.178;2023-04-25T13:37:54;11.10;99.90
37240;DHT22;23130;48.760;9.178;2023-04-25T13:40:20;10.90;99.90
37240;DHT22;23130;48.760;9.178;2023-04-25T13:42:46;11.00;99.90
37240;DHT22;23130;48.760;9.178;2023-04-25T13:45:12;10.70;99.90
37240;DHT22;23130;48.760;9.178;2023-04-25T13:47:37;10.80;99.90
37240;DHT22;23130;48.760;9.178;2023-04-25T13:50:06;11.00;99.90
37240;DHT22;23130;48.760;9.178;2023-04-25T13:52:32;10.80;99.90
37240;DHT22;23130;48.760;9.178;2023-04-25T13:54:58;10.50;99.90
37240;DHT22;23130;48.760;9.178;2023-04-25T13:57:24;10.30;99.90
37240;DHT22;23130;48.760;9.178;2023-04-25T13:59:50;10.20;99.90
37240;DHT22;23130;48.760;9.178;2023-04-25T14:02:16;10.30;99.90
37240;DHT22;23130;48.760;9.178;2023-04-25T14:04:42;10.70;99.90
37240;DHT22;23130;48.760;9.178;2023-04-25T14:07:07;10.80;99.90
37240;DHT22;23130;48.760;9.178;2023-04-25T14:09:33;10.90;99.90
37240;DHT22;23130;48.760;9.178;2023-04-25T14:11:59;11.10;99.90
37240;DHT22;23130;48.760;9.178;2023-04-25T14:14:25;11.20;99.90
37240;DHT22;23130;48.760;9.178;2023-04-25T14:16:51;11.40;99.90
37240;DHT22;23130;48.760;9.178;2023-04-25T14:19:19;11.50;99.90
37240;DHT22;23130;48.760;9.178;2023-04-25T14:21:45;11.70;99.90
37240;DHT22;23130;48.760;9.178;2023-04-25T14:24:12;12.00;99.90
37240;DHT22;23130;48.760;9.178;2023-04-25T14:26:38;11.70;99.90
37240;DHT22;23130;48.760;9.178;2023-04-25T14:29:05;11.40;99.90
37240;DHT22;23130;48.760;9.178;2023-04-25T14:31:32;11.30;99.90
37240;DHT22;23130;48.760;9.178;2023-04-25T14:33:58;11.30;99.90
37240;DHT22;23130;48.760;9.178;2023-04-25T14:36:23;11.70;99.90
37240;DHT22;23130;48.760;9.178;2023-04-25T14:38:49;12.10;99.90
37240;DHT22;23130;48.760;9.178;2023-04-25T14:41:14;12.30;99.90
37240;DHT22;23130;48.760;9.178;2023-04-25T14:43:40;12.30;99.90
37240;DHT22;23130;48.760;9.178;2023-04-25T14:46:06;12.40;99.90
37240;DHT22;23130;48.760;9.178;2023-04-25T14:48:33;12.20;99.90
37240;DHT22;23130;48.760;9.178;2023-04-25T14:50:59;12.00;99.90
37240;DHT22;23130;48.760;9.178;2023-04-25T14:53:25;11.70;99.90
37240;DHT22;23130;48.760;9.178;2023-04-25T14:55:51;11.50;99.90
37240;DHT22;23130;48.760;9.178;2023-04-25T14:58:16;11.40;99.90
37240;DHT22;23130;48.760;9.178;2023-04-25T15:00:42;11.30;99.90
37240;DHT22;23130;48.760;9.178;2023-04-25T15:03:08;11.40;99.90
37240;DHT22;23130;48.760;9.178;2023-04-25T15:05:37;11.50;99.90
37240;DHT22;23130;48.760;9.178;2023-04-25T15:08:02;11.80;99.90
37240;DHT22;23130;48.760;9.178;2023-04-25T15:10:28;11.90;99.90
37240;DHT22;23130;48.760;9.178;2023-04-25T15:12:54;12.30;99.90
37240;DHT22;23130;48.760;9.178;2023-04-25T15:15:19;12.60;99.90
37240;DHT22;23130;48.760;9.178;2023-04-25T15:17:45;12.80;99.90
37240;DHT22;23130;48.760;9.178;2023-04-25T15:20:12;12.70;99.90
37240;DHT22;23130;48.760;9.178;2023-04-25T15:22:43;12.50;99.90
37240;DHT22;23130;48.760;9.178;2023-04-25T15:25:09;12.20;99.90
37240;DHT22;23130;48.760;9.178;2023-04-25T15:27:39;11.90;99.90
37240;DHT22;23130;48.760;9.178;2023-04-25T15:30:10;11.60;99.90
37240;DHT22;23130;48.760;9.178;2023-04-25T15:32:41;11.40;99.90
37240;DHT22;23130;48.760;9.178;2023-04-25T15:35:07;11.20;99.90
37240;DHT22;23130;48.760;9.178;2023-04-25T15:37:33;11.10;99.90
37240;DHT22;23130;48.760;9.178;2023-04-25T15:42:48;10.90;99.90